Scroll down
FLIGHT INFORMATION
Air Atlanta Icelandic

ABD6401

At Arrival Gate

LEPA
 ESGG
DATE: 2020-10-10
GATE:  -
GATE DEPARTURE: 12:19
TAKEOFF: 12:36
DATE: 2020-10-10
GATE:  -
LANDING: 15:26
GATE ARRIVAL: 15:35
FLIGHT DATA
Crew: 
Speed: 
922 kph
Altitude: 
39,012 ft
Stage Length: 
2,127.6 km
Block Time: 
3.1 hrs
Flight Time: 
2.8 hrs
Fuel Used: 
27,183 kg
Cleared Route: LEPA ISTER BALEN OKSER BATIV RUBAS LERMA ROKNO VAMTU TONDA ODINA BODAN USUDO DKB IBAGA SULUS BAMKI LASTO MITRU KENIG EMBOX LEGDA GARGU ERNUD BKD LASLU NOBRI PABMI TAGOB ROSOK NIKDA MONAK NOVPO ROKAM VEDAR LASLI RISMA ESGG
TRACK DATA
50,000 ft 1,000 kts
AIRCRAFT INFO AND CUMULATIVE STATS
Aircraft Type: 
B744BCF
Registration: 
SELCAL: 
KMFL
MSN/LN: 
24801 / 805
Operator: 
Total Flights: 
4
Total Block Time: 
9.2 hrs
Total Flight Time: 
7.8 hrs
Total Fuel Time: 
79,998 kg
DATALINK LOG | Newest first | Current as of: 2021-05-07 14:08:20
LABEL SEQUENCE CONTENT Dn/Up
QD274115:35 54.2▼ Dn
QC183215:26▼ Dn
5U0501ESGG 091920Z 21008KT 9999 -DZ FEW016 09/08 Q1011▲ Up
5S5712ESGG▼ Dn
UM204913CLEARED TO FL 120▲ Up
DM64903REQUEST FL 120 DUE TO A/C PERF▼ Dn
5U1933ESGG 092134Z 17006KT 9999 SHRA BKN012 BKN020CB 09/07 Q1011▲ Up
5S0516ESGG▼ Dn
UM203860CLEARED TO FL 390▲ Up
DM63850REQUEST FL 390 DUE TO A/C PERF▼ Dn
UM203052CLEARED TO FL 320▲ Up
DM63042REQUEST FL 320 DUE TO A/C PERF▼ Dn
QB231812:36▼ Dn
QA060112:19 114.6▼ Dn
A34834CLEARED TO ESGG VIA ISTE2A ISTER BALEN UN736 ROKNO VAMTU TONDA ODINA BODAN USUDO DKB IBAGA SULUS BAMKI M852 LASTO M726 ROSOK Q296 MONAK NOVPO L997 RISMA RISM2T. SQUAWK 7400.▲ Up
B34823LEPA ESGG J ▼ Dn
Q04621[LINK ACK]▲ Up
Q04621[LINK TEST]▼ Dn


AIRCRAFT HISTORY
FLIGHT DATE FLIGHT NO. ORIGIN DESTINATION CLEARED ROUTE BLOCK TIME FLIGHT TIME FUEL USED PILOT
2020-10-14ABD4244ESGG EDFH ESGG VADIN GODOG ADSEN ALS ALASA WRB XAROL ALEXU EBANA OHMAR BIGSU ROLIS EMGOD EDFH1.7 hrs1.4 hrs32,179 lbZsolt Szivak
2020-10-10ABD6401LEPA ESGG LEPA ISTER BALEN OKSER BATIV RUBAS LERMA ROKNO VAMTU TONDA ODINA BODAN USUDO DKB IBAGA SULUS BAMKI LASTO MITRU KENIG EMBOX LEGDA GARGU ERNUD BKD LASLU NOBRI PABMI TAGOB ROSOK NIKDA MONAK NOVPO ROKAM VEDAR LASLI RISMA ESGG3.1 hrs2.8 hrs59,929 lbZsolt Szivak
2020-08-27ABD1018LHBP LEPA LHBP BP711 BP712 DUZLA DIMLO RIFEN AKADO OGPUD OLNUK TALEP SODRI ABRON BALEN MAXOS RIXOT LEPA2.5 hrs2.3 hrs49,603 lbZsolt Szivak
2020-07-26ABD2311EDFH LHBP EDFH ULKIG RUDUS FFM BOMBI DETEV DINKU AKANU LUPOX RENLO BESNI MIQNB DOSEL BIBAG AKIMA MAREG XENAK ANEXA LHBP1.8 hrs1.3 hrs34,654 lbZsolt Szivak